createdAt,value
2018-03-14T00:00:49.036Z,12.30
2018-03-14T00:03:16.446Z,16.43
2018-03-14T00:05:44.661Z,19.02
2018-03-14T00:08:12.070Z,12.93
2018-03-14T00:10:39.496Z,13.20
2018-03-14T00:13:06.961Z,13.55
2018-03-14T00:15:34.429Z,14.80
2018-03-14T00:18:01.846Z,13.43
2018-03-14T00:20:29.262Z,15.80
2018-03-14T00:22:56.741Z,17.53
2018-03-14T00:25:24.154Z,14.50
2018-03-14T00:27:53.073Z,13.35
2018-03-14T00:30:20.487Z,16.00
2018-03-14T00:32:47.904Z,17.00
2018-03-14T00:35:15.407Z,15.27
2018-03-14T00:37:42.955Z,14.23
2018-03-14T00:40:11.175Z,15.97
2018-03-14T00:42:38.631Z,21.13
2018-03-14T00:45:06.044Z,11.97
2018-03-14T00:47:33.454Z,13.60
2018-03-14T00:50:01.622Z,17.50
2018-03-14T00:52:29.028Z,13.67
2018-03-14T00:54:56.503Z,14.17
2018-03-14T00:57:23.910Z,17.50
2018-03-14T00:59:51.438Z,11.67
2018-03-14T01:02:19.610Z,16.30
2018-03-14T01:04:47.091Z,11.20
2018-03-14T01:07:14.487Z,11.87
2018-03-14T01:09:41.912Z,16.63
2018-03-14T01:12:09.335Z,14.40
2018-03-14T01:14:36.738Z,13.07
2018-03-14T01:17:04.909Z,19.37
2018-03-14T01:19:32.317Z,12.77
2018-03-14T01:21:59.708Z,13.23
2018-03-14T01:24:27.154Z,9.87
2018-03-14T01:26:54.564Z,11.23
2018-03-14T01:29:21.986Z,10.10
2018-03-14T01:31:49.386Z,13.20
2018-03-14T01:34:16.789Z,9.37
2018-03-14T01:36:45.014Z,12.30
2018-03-14T01:39:12.423Z,16.20
2018-03-14T01:41:39.900Z,10.57
2018-03-14T01:44:07.286Z,13.20
2018-03-14T01:46:35.499Z,14.55
2018-03-14T01:49:03.066Z,9.43
2018-03-14T01:51:30.473Z,7.80
2018-03-14T01:53:58.036Z,10.25
2018-03-14T01:56:26.307Z,14.23
2018-03-14T01:58:54.792Z,12.68
2018-03-14T02:01:22.262Z,14.30
2018-03-14T02:03:49.666Z,9.37
2018-03-14T02:06:17.195Z,13.13
2018-03-14T03:23:09.778Z,10.50
2018-03-14T03:25:37.990Z,11.97
2018-03-14T03:28:05.426Z,10.68
2018-03-14T03:30:33.622Z,15.90
2018-03-14T03:33:01.017Z,12.83
2018-03-14T03:35:28.439Z,12.17
2018-03-14T03:37:55.864Z,8.17
2018-03-14T03:40:23.274Z,8.93
2018-03-14T03:42:50.680Z,8.18
2018-03-14T03:45:18.086Z,11.83
2018-03-14T03:47:45.491Z,12.33
2018-03-14T03:50:12.905Z,7.05
2018-03-14T03:52:40.358Z,10.03
2018-03-14T03:55:07.765Z,13.40
2018-03-14T03:57:35.186Z,10.60
2018-03-14T04:00:02.596Z,8.27
2018-03-14T04:02:30.033Z,12.57
2018-03-14T04:04:57.458Z,10.40
2018-03-14T04:07:26.576Z,17.73
2018-03-14T04:09:54.749Z,11.23
2018-03-14T04:12:22.961Z,12.32
2018-03-14T04:14:50.431Z,11.70
2018-03-14T04:17:17.908Z,12.70
2018-03-14T04:19:45.382Z,13.77
2018-03-14T04:22:12.790Z,11.77
2018-03-14T04:24:40.312Z,12.23
2018-03-14T04:27:07.715Z,14.67
2018-03-14T04:29:35.154Z,15.97
2018-03-14T04:32:02.560Z,14.67
2018-03-14T04:34:29.966Z,18.10
2018-03-14T04:36:58.175Z,12.03
2018-03-14T04:39:27.257Z,15.23
2018-03-14T04:41:54.670Z,19.52
2018-03-14T04:44:22.081Z,14.17
2018-03-14T04:46:49.573Z,18.33
2018-03-14T04:49:17.177Z,14.47
2018-03-14T04:51:44.562Z,14.47
2018-03-14T04:54:11.981Z,16.40
2018-03-14T04:56:39.403Z,14.83
2018-03-14T04:59:06.831Z,16.30
2018-03-14T05:01:34.230Z,16.23
2018-03-14T05:04:01.655Z,16.97
2018-03-14T05:06:29.058Z,19.65
2018-03-14T05:08:57.137Z,16.92
2018-03-14T05:11:24.557Z,17.53
2018-03-14T05:13:52.051Z,12.40
2018-03-14T05:16:19.471Z,12.13
2018-03-14T05:18:47.712Z,23.40
2018-03-14T05:21:15.897Z,18.93
2018-03-14T05:23:43.314Z,18.70
2018-03-14T05:26:10.718Z,16.10
2018-03-14T05:28:38.138Z,13.67
2018-03-14T05:31:05.537Z,18.33
2018-03-14T05:33:33.721Z,21.13
2018-03-14T05:36:01.121Z,16.30
2018-03-14T05:38:28.548Z,17.73
2018-03-14T05:40:56.050Z,26.40
2018-03-14T05:43:23.518Z,17.20
2018-03-14T05:45:50.936Z,15.18
2018-03-14T05:48:18.333Z,19.00
2018-03-14T05:50:46.546Z,19.50
2018-03-14T05:53:14.702Z,16.30
2018-03-14T05:55:42.876Z,15.07
2018-03-14T05:58:10.382Z,16.20
2018-03-14T06:00:38.117Z,21.23
2018-03-14T06:03:05.537Z,20.03
2018-03-14T06:05:32.977Z,20.93
2018-03-14T06:08:00.476Z,20.27
2018-03-14T06:10:29.027Z,15.85
2018-03-14T06:12:56.435Z,17.93
2018-03-14T06:15:23.842Z,23.07
2018-03-14T06:17:51.260Z,21.90
2018-03-14T06:20:18.666Z,20.60
2018-03-14T06:22:46.078Z,24.00
2018-03-14T06:25:14.390Z,20.02
2018-03-14T06:27:42.537Z,19.00
2018-03-14T06:30:09.958Z,17.93
2018-03-14T06:32:37.373Z,20.43
2018-03-14T06:35:04.794Z,22.20
2018-03-14T06:37:32.202Z,18.37
2018-03-14T06:40:01.163Z,20.77
2018-03-14T06:42:29.710Z,24.35
2018-03-14T06:44:57.130Z,16.83
2018-03-14T06:47:24.535Z,18.70
2018-03-14T06:49:52.697Z,22.30
2018-03-14T06:52:20.117Z,19.20
2018-03-14T06:54:47.705Z,21.60
2018-03-14T06:57:15.117Z,15.55
2018-03-14T06:59:54.488Z,20.50
2018-03-14T07:05:40.910Z,28.38
2018-03-14T07:08:08.340Z,23.05
2018-03-14T07:10:35.804Z,23.03
2018-03-14T07:13:03.227Z,19.33
2018-03-14T07:15:31.418Z,19.00
2018-03-14T07:18:00.168Z,15.70
2018-03-14T07:20:27.580Z,21.63
2018-03-14T07:22:54.986Z,17.70
2018-03-14T07:25:22.422Z,18.30
2018-03-14T07:27:50.565Z,17.83
2018-03-14T07:30:18.884Z,17.87
2018-03-14T07:32:47.038Z,25.17
2018-03-14T07:35:14.470Z,27.73
2018-03-14T07:37:41.914Z,13.80
2018-03-14T07:40:09.402Z,16.83
2018-03-14T07:42:36.796Z,12.83
2018-03-14T07:45:04.274Z,19.20
2018-03-14T07:47:31.678Z,17.87
2018-03-14T07:49:59.899Z,17.05
2018-03-14T07:52:27.310Z,24.13
2018-03-14T07:54:55.479Z,12.23
2018-03-14T07:57:22.987Z,15.13
2018-03-14T07:59:50.451Z,16.57
2018-03-14T08:02:17.868Z,16.47
2018-03-14T08:04:45.283Z,17.00
2018-03-14T08:07:12.697Z,18.63
2018-03-14T08:09:40.118Z,19.67
2018-03-14T08:12:07.544Z,17.67
2018-03-14T08:14:34.945Z,15.07
2018-03-14T08:17:03.138Z,16.93
2018-03-14T08:19:31.318Z,20.43
2018-03-14T08:21:58.808Z,12.43
2018-03-14T08:24:26.286Z,19.92
2018-03-14T08:26:53.693Z,18.60
2018-03-14T08:29:21.318Z,13.00
2018-03-14T08:31:48.778Z,17.77
2018-03-14T08:34:16.255Z,15.00
2018-03-14T08:36:43.672Z,11.67
2018-03-14T08:39:11.088Z,16.27
2018-03-14T08:41:38.571Z,19.73
2018-03-14T08:44:05.982Z,18.13
2018-03-14T08:46:33.394Z,11.77
2018-03-14T08:49:01.689Z,11.55
2018-03-14T08:51:30.788Z,15.07
2018-03-14T08:53:58.961Z,14.60
2018-03-14T08:56:27.130Z,13.60
2018-03-14T08:58:55.338Z,12.50
2018-03-14T09:01:22.815Z,13.60
2018-03-14T09:03:50.238Z,12.43
2018-03-14T09:06:17.658Z,10.73
2018-03-14T09:08:45.081Z,13.00
2018-03-14T09:11:12.495Z,9.73
2018-03-14T09:13:39.890Z,7.37
2018-03-14T09:16:07.294Z,11.63
2018-03-14T09:18:35.666Z,12.93
2018-03-14T09:21:03.053Z,9.60
2018-03-14T09:23:31.941Z,10.57
2018-03-14T09:25:59.396Z,23.33
2018-03-14T09:28:26.797Z,16.47
2018-03-14T09:30:54.984Z,9.20
2018-03-14T09:33:23.174Z,11.30
2018-03-14T09:35:50.581Z,7.43
2018-03-14T09:38:17.982Z,9.23
2018-03-14T09:40:45.398Z,6.83
2018-03-14T09:43:12.858Z,5.43
2018-03-14T09:45:40.264Z,14.87
2018-03-14T09:48:07.690Z,8.20
2018-03-14T09:50:35.175Z,8.27
2018-03-14T09:53:02.601Z,14.33
2018-03-14T09:55:31.697Z,5.57
2018-03-14T09:57:59.122Z,8.03
2018-03-14T10:00:26.544Z,6.40
2018-03-14T10:02:54.767Z,6.90
2018-03-14T10:05:22.169Z,5.97
2018-03-14T10:07:49.598Z,10.60
2018-03-14T10:10:17.006Z,7.87
2018-03-14T10:12:44.843Z,8.57
2018-03-14T10:15:12.272Z,11.60
2018-03-14T10:17:39.793Z,12.17
2018-03-14T10:20:07.194Z,7.07
2018-03-14T10:22:34.601Z,11.77
2018-03-14T10:25:02.023Z,6.73
2018-03-14T10:27:29.461Z,7.23
2018-03-14T10:29:56.919Z,4.73
2018-03-14T10:32:24.321Z,4.27
2018-03-14T10:34:51.748Z,6.57
2018-03-14T10:37:19.216Z,8.83
2018-03-14T10:39:46.694Z,14.07
2018-03-14T10:42:14.112Z,12.13
2018-03-14T10:44:41.517Z,13.10
2018-03-14T10:47:08.927Z,6.65
2018-03-14T10:49:36.336Z,4.53
2018-03-14T10:52:04.514Z,4.23
2018-03-14T10:54:32.449Z,5.30
2018-03-14T10:56:59.917Z,3.90
2018-03-14T10:59:27.336Z,6.60
2018-03-14T11:01:54.746Z,7.43
2018-03-14T11:04:22.168Z,6.23
2018-03-14T11:06:49.667Z,6.60
2018-03-14T11:09:17.074Z,10.90
2018-03-14T11:11:44.507Z,7.27
2018-03-14T11:14:11.943Z,8.03
2018-03-14T11:16:40.165Z,4.80
2018-03-14T11:19:07.594Z,14.10
2018-03-14T11:21:35.020Z,5.43
2018-03-14T11:24:02.788Z,7.65
2018-03-14T11:26:30.449Z,6.03
2018-03-14T11:28:57.852Z,4.80
2018-03-14T11:31:25.391Z,5.00
2018-03-14T11:33:52.813Z,6.43
2018-03-14T11:36:20.227Z,8.20
2018-03-14T11:38:47.631Z,5.13
2018-03-14T11:41:16.596Z,8.90
2018-03-14T11:43:44.003Z,6.20
2018-03-14T11:46:11.407Z,5.20
2018-03-14T11:48:39.630Z,5.40
2018-03-14T11:51:06.988Z,4.37
2018-03-14T11:53:34.401Z,4.50
2018-03-14T11:56:03.515Z,11.07
2018-03-14T11:58:30.922Z,7.43
2018-03-14T12:00:58.454Z,9.03
2018-03-14T12:03:25.876Z,9.87
2018-03-14T12:05:53.290Z,7.30
2018-03-14T12:08:22.208Z,6.30
2018-03-14T12:10:50.361Z,6.83
2018-03-14T12:13:17.794Z,6.10
2018-03-14T12:15:45.211Z,9.00
2018-03-14T12:18:12.616Z,9.07
2018-03-14T12:20:40.037Z,3.70
2018-03-14T12:23:07.449Z,6.50
2018-03-14T12:25:34.857Z,4.83
2018-03-14T12:28:02.285Z,6.83
2018-03-14T12:30:29.715Z,6.53
2018-03-14T12:32:57.134Z,5.30
2018-03-14T12:35:24.542Z,11.13
2018-03-14T12:37:51.963Z,10.70
2018-03-14T12:40:19.436Z,5.40
2018-03-14T12:42:47.603Z,5.97
2018-03-14T12:45:15.768Z,8.00
2018-03-14T12:47:43.349Z,6.77
2018-03-14T12:50:10.747Z,8.83
2018-03-14T12:52:38.166Z,7.90
2018-03-14T12:55:05.578Z,7.00
2018-03-14T12:57:34.664Z,10.43
2018-03-14T13:00:02.983Z,8.20
2018-03-14T13:02:30.415Z,6.90
2018-03-14T13:04:57.816Z,5.40
2018-03-14T13:07:25.230Z,7.70
2018-03-14T13:09:52.666Z,14.40
2018-03-14T13:12:20.077Z,6.17
2018-03-14T13:14:47.510Z,8.80
2018-03-14T13:17:14.953Z,6.97
2018-03-14T13:19:43.114Z,6.63
2018-03-14T13:22:11.372Z,5.23
2018-03-14T13:24:38.795Z,6.70
2018-03-14T13:27:06.223Z,7.70
2018-03-14T13:29:34.546Z,8.00
2018-03-14T13:32:02.037Z,10.03
2018-03-14T13:34:29.494Z,8.30
2018-03-14T13:36:56.958Z,5.30
2018-03-14T13:39:24.366Z,4.93
2018-03-14T13:41:51.777Z,5.67
2018-03-14T13:44:19.245Z,9.53
2018-03-14T13:46:46.754Z,12.73
2018-03-14T13:49:14.190Z,6.33
2018-03-14T13:51:41.604Z,8.10
2018-03-14T13:54:09.018Z,8.23
2018-03-14T13:56:37.194Z,7.50
2018-03-14T13:59:05.684Z,8.70
2018-03-14T14:01:34.833Z,8.77
2018-03-14T14:04:02.229Z,5.77
2018-03-14T14:06:29.634Z,8.50
2018-03-14T14:08:57.848Z,7.40
2018-03-14T14:11:25.220Z,5.60
2018-03-14T14:13:52.679Z,4.83
2018-03-14T14:16:20.112Z,6.30
2018-03-14T14:18:47.511Z,8.67
2018-03-14T14:21:14.921Z,6.00
2018-03-14T14:23:42.338Z,10.30
2018-03-14T14:26:10.509Z,9.57
2018-03-14T14:28:38.695Z,8.03
2018-03-14T14:31:06.908Z,10.37
2018-03-14T14:33:35.308Z,6.70
2018-03-14T14:36:02.718Z,12.50
2018-03-14T14:38:30.238Z,8.73
2018-03-14T14:40:58.410Z,6.53
2018-03-14T14:43:25.838Z,7.20
2018-03-14T14:45:53.281Z,11.17
2018-03-14T14:48:20.668Z,12.07
2018-03-14T14:50:48.098Z,11.90
2018-03-14T14:53:15.518Z,7.37
2018-03-14T14:55:42.924Z,10.07
2018-03-14T14:58:10.405Z,10.63
2018-03-14T15:00:37.842Z,10.17
2018-03-14T15:03:06.623Z,9.75
2018-03-14T15:05:34.024Z,8.30
2018-03-14T15:08:01.607Z,10.20
2018-03-14T15:10:29.042Z,10.43
2018-03-14T15:12:57.221Z,14.03
2018-03-14T15:15:25.441Z,11.77
2018-03-14T15:17:52.928Z,11.20
2018-03-14T15:20:20.360Z,13.00
2018-03-14T15:22:48.554Z,13.70
2018-03-14T15:25:16.727Z,14.60
2018-03-14T15:27:44.902Z,8.67
2018-03-14T15:30:12.311Z,9.43
2018-03-14T15:32:39.822Z,9.87
2018-03-14T15:35:07.260Z,14.13
2018-03-14T15:37:34.846Z,10.87
2018-03-14T15:40:02.303Z,13.60
2018-03-14T15:42:29.734Z,14.77
2018-03-14T15:44:57.945Z,11.57
2018-03-14T15:47:25.354Z,13.23
2018-03-14T15:49:52.765Z,7.83
2018-03-14T15:52:20.184Z,16.13
2018-03-14T15:54:47.619Z,12.90
2018-03-14T15:57:15.082Z,10.83
2018-03-14T15:59:43.252Z,16.90
2018-03-14T16:02:11.459Z,10.27
2018-03-14T16:04:38.850Z,15.60
2018-03-14T16:07:07.501Z,12.70
2018-03-14T16:09:35.706Z,10.63
2018-03-14T16:12:03.860Z,12.00
2018-03-14T16:14:32.038Z,9.30
2018-03-14T16:16:59.468Z,14.73
2018-03-14T16:19:26.910Z,14.20
2018-03-14T16:21:55.097Z,15.50
2018-03-14T16:24:23.263Z,21.17
2018-03-14T16:26:52.699Z,10.90
2018-03-14T16:29:20.872Z,15.00
2018-03-14T16:31:49.055Z,12.13
2018-03-14T16:34:17.217Z,10.73
2018-03-14T16:36:44.637Z,13.03
2018-03-14T16:39:12.043Z,15.03
2018-03-14T16:41:40.226Z,16.70
2018-03-14T16:44:07.639Z,20.50
2018-03-14T16:46:35.092Z,23.53
2018-03-14T16:49:03.278Z,25.23
2018-03-14T16:51:30.705Z,26.40
2018-03-14T16:53:58.109Z,32.83
2018-03-14T16:56:26.315Z,23.30
2018-03-14T16:58:53.785Z,22.27
2018-03-14T17:01:21.189Z,22.43
2018-03-14T17:03:48.624Z,23.47
2018-03-14T17:06:16.206Z,20.53
2018-03-14T17:08:43.687Z,21.33
2018-03-14T17:11:11.098Z,22.10
2018-03-14T17:13:38.515Z,20.23
2018-03-14T17:16:05.933Z,18.97
2018-03-14T17:18:33.410Z,20.30
2018-03-14T17:21:00.834Z,20.53
2018-03-14T17:23:28.235Z,21.10
2018-03-14T17:25:55.662Z,24.87
2018-03-14T17:28:23.082Z,18.20
2018-03-14T17:30:51.300Z,18.17
2018-03-14T17:33:18.701Z,16.93
2018-03-14T17:35:46.118Z,20.00
2018-03-14T17:38:13.529Z,20.70
2018-03-14T17:40:40.945Z,17.67
2018-03-14T17:43:09.237Z,24.33
2018-03-14T17:45:36.622Z,20.73
2018-03-14T17:48:04.118Z,24.70
2018-03-14T17:50:31.561Z,19.03
2018-03-14T17:52:58.973Z,18.73
2018-03-14T17:55:26.418Z,16.50
2018-03-14T17:57:53.882Z,17.40
2018-03-14T18:00:21.294Z,20.63
2018-03-14T18:02:48.803Z,14.80
2018-03-14T18:05:16.226Z,19.87
2018-03-14T18:07:43.632Z,15.80
2018-03-14T18:10:11.102Z,17.70
2018-03-14T18:12:39.382Z,14.15
2018-03-14T18:15:06.823Z,16.43
2018-03-14T18:17:35.001Z,17.20
2018-03-14T18:20:02.440Z,14.43
2018-03-14T18:22:29.834Z,21.00
2018-03-14T18:24:57.238Z,18.90
2018-03-14T18:27:24.702Z,15.30
2018-03-14T18:29:52.071Z,18.87
2018-03-14T18:32:20.248Z,22.50
2018-03-14T18:34:48.459Z,21.80
2018-03-14T18:37:15.877Z,17.12
2018-03-14T18:39:43.298Z,18.40
2018-03-14T18:42:10.712Z,19.23
2018-03-14T18:44:39.067Z,19.80
2018-03-14T18:47:06.514Z,23.97
2018-03-14T18:49:34.696Z,31.97
2018-03-14T18:52:02.170Z,26.20
2018-03-14T18:54:29.593Z,23.37
2018-03-14T18:56:57.022Z,33.53
2018-03-14T18:59:24.430Z,25.37
2018-03-14T19:01:51.941Z,26.30
2018-03-14T19:04:19.436Z,30.47
2018-03-14T19:06:46.847Z,25.47
2018-03-14T19:09:14.262Z,29.40
2018-03-14T19:11:41.707Z,21.70
2018-03-14T19:14:09.393Z,19.33
2018-03-14T19:16:36.754Z,26.20
2018-03-14T19:19:04.233Z,21.80
2018-03-14T19:21:32.400Z,16.60
2018-03-14T19:24:00.611Z,28.03
2018-03-14T19:26:28.006Z,18.70
2018-03-14T19:28:55.436Z,23.33
2018-03-14T19:31:22.843Z,17.27
2018-03-14T19:33:50.253Z,22.97
2018-03-14T19:36:18.438Z,19.63
2018-03-14T19:38:46.622Z,20.80
2018-03-14T19:41:14.794Z,22.50
2018-03-14T19:43:42.969Z,19.67
2018-03-14T19:46:10.378Z,16.23
2018-03-14T19:48:37.786Z,27.30
2018-03-14T19:51:05.322Z,27.57
2018-03-14T19:53:33.494Z,26.03
2018-03-14T19:56:00.975Z,25.73
2018-03-14T19:58:28.458Z,26.40
2018-03-14T20:00:55.869Z,25.30
2018-03-14T20:03:23.374Z,26.00
2018-03-14T20:05:50.807Z,27.77
2018-03-14T20:08:18.233Z,24.57
2018-03-14T20:10:45.642Z,25.47
2018-03-14T20:13:13.050Z,29.37
2018-03-14T20:15:40.533Z,30.50
2018-03-14T20:18:07.947Z,24.90
2018-03-14T20:20:35.367Z,25.90
2018-03-14T20:23:02.810Z,24.00
2018-03-14T20:25:31.120Z,28.30
2018-03-14T20:27:58.527Z,22.42
2018-03-14T20:30:25.967Z,22.83
2018-03-14T20:32:53.358Z,28.83
2018-03-14T20:35:20.786Z,30.97
2018-03-14T20:37:48.255Z,26.90
2018-03-14T20:40:15.669Z,22.13
2018-03-14T20:42:43.094Z,26.90
2018-03-14T20:45:11.549Z,23.30
2018-03-14T20:47:40.670Z,22.10
2018-03-14T20:50:08.849Z,24.13
2018-03-14T20:52:37.039Z,20.67
2018-03-14T20:55:05.250Z,21.90
2018-03-14T20:57:32.726Z,26.83
2018-03-14T21:00:00.182Z,24.53
2018-03-14T21:02:27.654Z,29.30
2018-03-14T21:04:55.126Z,22.95
2018-03-14T21:07:22.523Z,19.00
2018-03-14T21:09:49.942Z,22.17
2018-03-14T21:12:18.110Z,18.43
2018-03-14T21:14:46.304Z,17.13
2018-03-14T21:17:14.520Z,19.63
2018-03-14T21:19:41.936Z,18.97
2018-03-14T21:22:09.445Z,21.40
2018-03-14T21:24:36.917Z,21.27
2018-03-14T21:27:04.351Z,18.50
2018-03-14T21:29:31.759Z,18.07
2018-03-14T21:31:59.942Z,20.27
2018-03-14T21:34:27.338Z,22.17
2018-03-14T21:36:54.758Z,22.13
2018-03-14T21:39:23.058Z,19.50
2018-03-14T21:41:50.378Z,21.00
2018-03-14T21:44:17.785Z,23.23
2018-03-14T21:46:45.965Z,25.50
2018-03-14T21:49:14.138Z,23.47
2018-03-14T21:51:42.457Z,22.23
2018-03-14T21:54:11.607Z,25.60
2018-03-14T21:56:39.732Z,28.13
2018-03-14T21:59:07.902Z,19.37
2018-03-14T22:01:35.328Z,43.17
2018-03-14T22:04:02.805Z,22.67
2018-03-14T22:06:30.312Z,22.80
2018-03-14T22:08:57.726Z,22.73
2018-03-14T22:11:25.254Z,17.93
2018-03-14T22:13:52.615Z,21.83
2018-03-14T22:16:20.038Z,17.20
2018-03-14T22:18:47.450Z,22.37
2018-03-14T22:21:14.957Z,19.50
2018-03-14T22:23:42.426Z,26.70
2018-03-14T22:26:09.862Z,24.80
2018-03-14T22:28:37.270Z,21.60
2018-03-14T22:31:04.686Z,25.73
2018-03-14T22:33:32.117Z,26.03
2018-03-14T22:35:59.540Z,17.60
2018-03-14T22:38:27.782Z,19.77
2018-03-14T22:40:55.231Z,18.97
2018-03-14T22:43:22.690Z,27.20
2018-03-14T22:45:50.106Z,31.23
2018-03-14T22:48:17.603Z,13.15
2018-03-14T22:50:45.035Z,24.97
2018-03-14T22:53:13.461Z,23.10
2018-03-14T22:55:40.869Z,37.80
2018-03-14T22:58:08.331Z,21.67
2018-03-14T23:00:35.749Z,22.17
2018-03-14T23:03:03.354Z,22.87
2018-03-14T23:05:30.774Z,27.73
2018-03-14T23:07:58.185Z,25.07
2018-03-14T23:10:25.611Z,19.80
2018-03-14T23:12:53.142Z,26.20
2018-03-14T23:15:20.673Z,28.60
2018-03-14T23:17:48.294Z,26.57
2018-03-14T23:20:15.709Z,27.27
2018-03-14T23:22:43.941Z,27.65
2018-03-14T23:25:11.397Z,27.67
2018-03-14T23:27:38.854Z,30.47
2018-03-14T23:30:06.395Z,23.00
2018-03-14T23:32:33.801Z,28.43
2018-03-14T23:35:01.288Z,29.30
2018-03-14T23:37:28.802Z,20.13
2018-03-14T23:39:56.174Z,34.03
2018-03-14T23:42:23.581Z,21.50
2018-03-14T23:44:51.174Z,26.57
2018-03-14T23:47:18.593Z,30.20
2018-03-14T23:49:46.775Z,29.57
2018-03-14T23:52:14.198Z,32.07
2018-03-14T23:54:41.650Z,33.35
2018-03-14T23:57:09.117Z,25.77
2018-03-14T23:59:36.612Z,23.77
